Time;durP1;ratioP1;P1;durP2;ratioP2;P2;SDS_P1;SDS_P2;PMS_P1;PMS_P2;Temp;Humidity;BMP_temperature;BMP_pressure;BME280_temperature;BME280_humidity;BME280_pressure;Samples;Min_cycle;Max_cycle;Signal;HPM_P1;HPM_P2
2023/03/29 00:01:05;;;;;;;5.50;3.13;;;0.10;67.00;;;;;;5049249;28;20033;-68
2023/03/29 00:03:32;;;;;;;7.55;3.13;;;0.10;68.90;;;;;;5038836;28;20086;-68
2023/03/29 00:06:01;;;;;;;7.03;3.15;;;0.00;67.20;;;;;;5027433;28;20032;-68
2023/03/29 00:08:28;;;;;;;7.05;3.70;;;0.00;68.70;;;;;;5047594;28;20112;-68
2023/03/29 00:10:55;;;;;;;7.13;3.25;;;0.00;70.90;;;;;;5030446;28;20040;-68
2023/03/29 00:13:21;;;;;;;6.80;3.35;;;0.00;72.20;;;;;;5047231;28;20520;-68
2023/03/29 00:15:46;;;;;;;4.93;3.33;;;-0.10;71.70;;;;;;5030255;28;20033;-68
2023/03/29 00:18:12;;;;;;;7.15;3.80;;;-0.10;72.90;;;;;;5045699;28;20052;-68
2023/03/29 00:20:38;;;;;;;6.80;3.22;;;-0.20;70.90;;;;;;5030268;28;20037;-68
2023/03/29 00:23:03;;;;;;;3.88;2.47;;;-0.20;75.70;;;;;;5045638;28;20037;-68
2023/03/29 00:25:29;;;;;;;9.88;3.35;;;-0.20;81.80;;;;;;5049446;28;20060;-69
2023/03/29 00:27:54;;;;;;;7.10;2.53;;;-0.30;78.20;;;;;;5034198;28;20025;-68
2023/03/29 00:30:20;;;;;;;6.40;2.78;;;-0.40;74.80;;;;;;5049598;28;20504;-67
2023/03/29 00:32:45;;;;;;;5.47;2.85;;;-0.40;80.40;;;;;;5033161;28;20060;-68
2023/03/29 00:35:11;;;;;;;6.80;2.85;;;-0.40;84.10;;;;;;5049340;28;20540;-68
2023/03/29 00:37:37;;;;;;;4.75;2.60;;;-0.50;81.70;;;;;;5031644;28;20407;-68
2023/03/29 00:40:08;;;;;;;5.47;2.50;;;-0.50;85.60;;;;;;5049639;28;20036;-69
2023/03/29 00:42:34;;;;;;;7.22;2.85;;;-0.60;87.10;;;;;;5030642;28;20086;-68
2023/03/29 00:45:08;;;;;;;5.40;2.58;;;-0.60;84.80;;;;;;5049448;28;20495;-68
2023/03/29 00:47:40;;;;;;;6.00;2.55;;;-0.60;84.80;;;;;;5013369;28;20223;-67
2023/03/29 00:50:11;;;;;;;3.60;2.03;;;-0.60;87.50;;;;;;5047972;28;20373;-68
2023/03/29 00:52:38;;;;;;;5.13;2.47;;;-0.60;85.40;;;;;;5014541;28;20439;-68
2023/03/29 00:55:09;;;;;;;5.63;2.53;;;-0.60;81.80;;;;;;5049260;28;20148;-68
2023/03/29 00:57:37;;;;;;;4.32;2.30;;;-0.70;79.50;;;;;;5013978;28;20033;-68
2023/03/29 01:00:08;;;;;;;4.85;2.42;;;-0.60;78.80;;;;;;5049105;28;20021;-68
2023/03/29 01:02:38;;;;;;;4.75;2.22;;;-0.60;87.70;;;;;;5030166;28;20566;-68
2023/03/29 01:05:13;;;;;;;3.83;2.08;;;-0.60;86.10;;;;;;5040945;28;20221;-68
2023/03/29 01:07:52;;;;;;;4.35;2.08;;;-0.60;82.60;;;;;;5030900;28;20028;-68
2023/03/29 01:10:24;;;;;;;3.05;1.85;;;-0.60;85.00;;;;;;5048969;28;20036;-68
2023/03/29 01:12:55;;;;;;;3.75;2.33;;;-0.60;89.30;;;;;;5017711;28;20083;-68
2023/03/29 01:15:25;;;;;;;6.88;2.45;;;-0.50;90.50;;;;;;5048818;28;20086;-67
2023/03/29 01:17:52;;;;;;;4.10;2.20;;;-0.50;89.20;;;;;;5032292;28;20020;-68
2023/03/29 01:20:49;;;;;;;3.30;1.98;;;-0.50;92.80;;;;;;5048766;28;20020;-68
2023/03/29 01:23:37;;;;;;;4.00;2.35;;;-0.40;91.00;;;;;;5024988;28;20040;-68
2023/03/29 01:26:21;;;;;;;4.82;2.60;;;-0.40;95.10;;;;;;5009206;28;20030;-68
2023/03/29 01:29:07;;;;;;;5.53;2.65;;;-0.40;98.10;;;;;;5020379;28;20448;-68
2023/03/29 01:31:38;;;;;;;3.92;2.42;;;-0.30;99.80;;;;;;5040473;28;20136;-68
2023/03/29 01:34:24;;;;;;;4.40;2.72;;;-0.30;98.20;;;;;;5042362;28;20508;-68
2023/03/29 01:37:19;;;;;;;3.00;1.88;;;-0.30;95.40;;;;;;5009121;28;20025;-68
2023/03/29 01:39:45;;;;;;;5.82;2.53;;;-0.30;93.70;;;;;;5027478;28;20041;-68
2023/03/29 01:42:19;;;;;;;4.05;2.20;;;-0.30;91.80;;;;;;5047143;28;20032;-68
2023/03/29 01:44:48;;;;;;;3.33;1.80;;;-0.30;92.90;;;;;;5048500;28;20059;-68
2023/03/29 01:47:30;;;;;;;2.55;2.05;;;-0.30;92.10;;;;;;5026996;28;20026;-68
2023/03/29 01:50:14;;;;;;;3.47;2.30;;;-0.20;94.60;;;;;;5047945;28;20116;-68
2023/03/29 01:52:49;;;;;;;6.15;2.35;;;-0.20;95.70;;;;;;5014536;28;20022;-67
2023/03/29 01:55:20;;;;;;;2.80;1.73;;;-0.10;94.30;;;;;;5047332;28;20025;-68
2023/03/29 01:57:47;;;;;;;5.57;1.90;;;-0.10;96.10;;;;;;5016523;28;20325;-67
2023/03/29 02:00:18;;;;;;;7.32;2.58;;;-0.10;96.10;;;;;;5052225;28;20546;-69
2023/03/29 02:02:44;;;;;;;5.82;2.50;;;-0.10;97.30;;;;;;5034930;28;20044;-67
2023/03/29 02:05:13;;;;;;;7.78;2.58;;;-0.10;99.90;;;;;;5039616;28;20548;-68
2023/03/29 02:07:40;;;;;;;3.38;1.85;;;-0.10;99.50;;;;;;5034230;28;20017;-68
2023/03/29 02:10:07;;;;;;;4.45;2.50;;;0.00;99.30;;;;;;5052256;28;20515;-68
2023/03/29 02:12:33;;;;;;;3.53;2.28;;;0.00;99.90;;;;;;5033577;28;20028;-68
2023/03/29 02:14:59;;;;;;;4.95;2.08;;;-0.10;99.20;;;;;;5052159;28;20378;-68
2023/03/29 02:17:26;;;;;;;7.13;2.22;;;-0.10;99.90;;;;;;5032463;28;20045;-68
2023/03/29 02:20:13;;;;;;;3.92;2.10;;;0.00;99.70;;;;;;5052045;28;20555;-68
2023/03/29 02:22:53;;;;;;;3.30;2.00;;;-0.10;98.70;;;;;;5017929;28;20086;-68
2023/03/29 02:25:21;;;;;;;5.20;2.28;;;-0.10;99.90;;;;;;5052046;28;20087;-67
2023/03/29 02:27:47;;;;;;;7.75;2.38;;;-0.10;99.90;;;;;;5035360;28;20280;-68
2023/03/29 02:30:16;;;;;;;6.18;2.25;;;-0.10;99.90;;;;;;5050564;28;20069;-68
2023/03/29 02:32:54;;;;;;;4.88;2.42;;;-0.10;99.90;;;;;;5034112;28;20107;-68
2023/03/29 02:35:35;;;;;;;5.30;2.13;;;-0.10;99.90;;;;;;5051917;28;20037;-67
2023/03/29 02:38:04;;;;;;;3.20;2.03;;;-0.10;99.90;;;;;;5036823;28;20028;-68
2023/03/29 02:40:32;;;;;;;6.38;2.97;;;-0.10;99.90;;;;;;5051690;28;20067;-62
2023/03/29 02:42:59;;;;;;;4.25;1.92;;;-0.10;99.90;;;;;;5034898;28;20562;-56
2023/03/29 02:45:26;;;;;;;2.92;1.80;;;-0.10;99.90;;;;;;5051585;28;20021;-64
2023/03/29 02:47:55;;;;;;;3.42;2.00;;;-0.10;99.90;;;;;;5035794;28;20028;-64
2023/03/29 02:50:23;;;;;;;4.97;1.65;;;-0.10;99.90;;;;;;5051525;28;20017;-63
2023/03/29 02:53:00;;;;;;;5.60;2.08;;;-0.10;99.90;;;;;;5034870;28;20040;-64
2023/03/29 02:55:33;;;;;;;3.33;1.70;;;-0.10;99.90;;;;;;5051299;28;20021;-64
2023/03/29 02:58:02;;;;;;;4.25;1.90;;;-0.10;99.90;;;;;;5035992;28;20032;-64
2023/03/29 03:00:28;;;;;;;3.00;1.83;;;-0.10;99.90;;;;;;5051248;28;20082;-63
2023/03/29 03:02:54;;;;;;;5.65;2.20;;;-0.10;99.90;;;;;;5035823;28;20111;-64
2023/03/29 03:05:19;;;;;;;3.97;1.80;;;-0.10;99.90;;;;;;5030777;28;20172;-63
2023/03/29 03:07:45;;;;;;;6.38;2.47;;;-0.10;99.90;;;;;;5049104;28;20451;-64
2023/03/29 03:10:11;;;;;;;6.00;2.00;;;-0.10;99.90;;;;;;5050591;28;20433;-64
2023/03/29 03:12:36;;;;;;;5.15;2.00;;;-0.10;99.90;;;;;;5033145;28;20025;-64
2023/03/29 03:15:04;;;;;;;3.05;1.45;;;-0.10;99.90;;;;;;5051569;28;20384;-64
2023/03/29 03:17:32;;;;;;;5.97;2.00;;;-0.10;99.90;;;;;;5030499;28;20036;-64
2023/03/29 03:19:58;;;;;;;4.13;1.65;;;-0.10;99.90;;;;;;5051190;28;20028;-64
2023/03/29 03:22:23;;;;;;;3.42;1.90;;;-0.10;99.90;;;;;;5029939;28;20677;-63
2023/03/29 03:24:49;;;;;;;4.78;2.03;;;-0.10;99.90;;;;;;5050994;28;20013;-63
2023/03/29 03:27:15;;;;;;;4.47;1.83;;;-0.10;99.90;;;;;;5030260;28;20052;-63
2023/03/29 03:29:41;;;;;;;7.32;2.28;;;-0.10;99.90;;;;;;5051008;28;20028;-64
2023/03/29 03:32:06;;;;;;;5.07;2.70;;;-0.10;99.90;;;;;;5041700;28;20033;-64
2023/03/29 03:34:33;;;;;;;3.40;1.80;;;-0.10;99.90;;;;;;5047602;28;20052;-64
2023/03/29 03:37:00;;;;;;;4.32;1.88;;;-0.10;99.90;;;;;;5031176;28;20025;-63
2023/03/29 03:39:26;;;;;;;3.53;1.70;;;-0.10;99.90;;;;;;5029683;28;20478;-63
2023/03/29 03:41:51;;;;;;;3.97;2.03;;;-0.20;99.90;;;;;;5050011;28;20040;-64
2023/03/29 03:44:17;;;;;;;6.93;2.45;;;-0.10;99.90;;;;;;5029347;28;20033;-64
2023/03/29 03:46:42;;;;;;;9.88;2.88;;;-0.20;99.90;;;;;;5049830;28;20060;-63
2023/03/29 03:49:07;;;;;;;19.25;2.80;;;-0.10;99.90;;;;;;5029296;28;20261;-64
2023/03/29 03:51:33;;;;;;;4.97;2.28;;;-0.20;99.90;;;;;;5049786;28;20044;-64
2023/03/29 03:53:58;;;;;;;8.27;2.55;;;-0.20;99.90;;;;;;5026044;28;20033;-64
2023/03/29 03:56:24;;;;;;;8.98;3.45;;;-0.20;99.90;;;;;;5030131;28;20409;-64
2023/03/29 03:58:50;;;;;;;7.00;2.42;;;-0.20;99.90;;;;;;5030293;28;20030;-64
2023/03/29 04:01:16;;;;;;;4.28;1.92;;;-0.20;99.90;;;;;;5048306;28;20036;-64
2023/03/29 04:03:42;;;;;;;7.72;2.10;;;-0.20;99.90;;;;;;5030646;28;20132;-63
2023/03/29 04:06:08;;;;;;;5.28;2.38;;;-0.30;99.90;;;;;;5025575;28;20113;-64
2023/03/29 04:08:34;;;;;;;6.25;2.30;;;-0.30;99.90;;;;;;5036517;28;20021;-64
2023/03/29 04:10:59;;;;;;;7.30;2.20;;;-0.30;99.90;;;;;;5049593;28;20075;-65
2023/03/29 04:13:26;;;;;;;10.45;2.75;;;-0.30;99.90;;;;;;5038559;28;20059;-64
2023/03/29 04:15:55;;;;;;;5.10;2.38;;;-0.30;99.90;;;;;;5030519;28;20485;-64
2023/03/29 04:18:22;;;;;;;5.30;2.20;;;-0.40;99.90;;;;;;5047901;28;20021;-64
2023/03/29 04:20:48;;;;;;;4.35;2.15;;;-0.30;99.90;;;;;;5029424;28;20041;-64
2023/03/29 04:23:14;;;;;;;5.55;2.55;;;-0.30;99.90;;;;;;5046016;28;20033;-64
2023/03/29 04:25:40;;;;;;;7.35;2.55;;;-0.30;99.90;;;;;;5029344;28;20437;-64
2023/03/29 04:28:06;;;;;;;3.65;1.95;;;-0.30;99.90;;;;;;5047027;28;20024;-64
2023/03/29 04:30:31;;;;;;;3.58;2.17;;;-0.20;99.90;;;;;;5049709;28;20138;-64
2023/03/29 04:32:57;;;;;;;5.97;2.35;;;-0.20;99.90;;;;;;5033195;28;20484;-64
2023/03/29 04:35:22;;;;;;;3.67;1.95;;;-0.10;99.90;;;;;;5049807;28;20025;-63
2023/03/29 04:37:49;;;;;;;7.03;1.92;;;-0.10;99.90;;;;;;5033047;28;20393;-64
2023/03/29 04:40:18;;;;;;;6.40;2.22;;;-0.10;99.90;;;;;;5049774;28;20021;-64
2023/03/29 04:42:44;;;;;;;4.22;2.08;;;0.00;99.90;;;;;;5031875;28;20033;-64
2023/03/29 04:45:12;;;;;;;4.78;2.10;;;0.00;99.90;;;;;;5049683;28;20056;-64
2023/03/29 04:47:38;;;;;;;6.20;2.20;;;0.10;99.90;;;;;;5034276;28;20027;-64
2023/03/29 04:50:05;;;;;;;4.45;1.67;;;0.10;99.90;;;;;;5047485;28;20114;-64
2023/03/29 04:52:32;;;;;;;9.15;2.17;;;0.20;99.90;;;;;;5030337;28;20037;-64
2023/03/29 04:54:58;;;;;;;10.75;2.58;;;0.20;99.90;;;;;;5049519;28;20021;-64
2023/03/29 04:57:23;;;;;;;3.83;2.13;;;0.30;99.90;;;;;;5029173;28;20681;-64
2023/03/29 04:59:49;;;;;;;6.60;1.90;;;0.30;99.90;;;;;;5049207;28;20072;-64
2023/03/29 05:02:14;;;;;;;3.75;1.92;;;0.30;99.90;;;;;;5027863;28;20397;-63
2023/03/29 05:04:40;;;;;;;8.95;3.17;;;0.40;99.90;;;;;;5033270;28;20033;-63
2023/03/29 05:07:05;;;;;;;5.90;2.58;;;0.40;99.90;;;;;;5046096;28;20047;-64
2023/03/29 05:09:30;;;;;;;5.70;2.33;;;0.50;99.90;;;;;;5027764;28;20104;-64
2023/03/29 05:11:56;;;;;;;4.97;1.73;;;0.50;99.90;;;;;;5048387;28;20025;-64
2023/03/29 05:14:22;;;;;;;7.45;2.20;;;0.50;99.90;;;;;;5027780;28;20577;-64
2023/03/29 05:16:48;;;;;;;4.25;1.80;;;0.60;99.90;;;;;;5048001;28;20032;-64
2023/03/29 05:19:13;;;;;;;6.45;2.20;;;0.60;99.90;;;;;;5034195;28;20052;-63
2023/03/29 05:21:39;;;;;;;4.90;2.20;;;0.70;99.90;;;;;;5028022;28;20030;-64
2023/03/29 05:24:05;;;;;;;7.72;2.65;;;0.80;99.90;;;;;;5045568;28;20563;-64
2023/03/29 05:26:30;;;;;;;6.18;2.30;;;0.80;99.90;;;;;;5048754;28;20021;-64
2023/03/29 05:28:56;;;;;;;3.17;2.08;;;0.90;99.90;;;;;;5024948;28;20069;-64
2023/03/29 05:31:22;;;;;;;6.57;2.30;;;0.90;99.90;;;;;;5026357;28;20057;-64
2023/03/29 05:33:48;;;;;;;7.00;2.58;;;1.00;99.90;;;;;;5031184;28;20025;-64
2023/03/29 05:36:15;;;;;;;8.77;2.72;;;1.00;99.90;;;;;;5047623;28;20029;-64
2023/03/29 05:38:45;;;;;;;5.65;2.78;;;1.10;99.90;;;;;;5031294;28;20524;-64
2023/03/29 05:41:11;;;;;;;6.47;2.30;;;1.20;99.90;;;;;;5047582;28;20021;-64
2023/03/29 05:43:37;;;;;;;5.20;2.53;;;1.20;99.60;;;;;;5030917;28;20037;-64
2023/03/29 05:46:03;;;;;;;13.75;2.55;;;1.30;98.60;;;;;;5047340;28;20021;-64
2023/03/29 05:48:28;;;;;;;4.32;2.47;;;1.40;98.60;;;;;;5029527;28;20516;-63
2023/03/29 05:50:55;;;;;;;5.72;2.67;;;1.50;98.50;;;;;;5036382;28;20096;-63
2023/03/29 05:53:22;;;;;;;4.32;2.50;;;1.50;98.00;;;;;;5027820;28;20116;-61
2023/03/29 05:55:48;;;;;;;5.13;2.17;;;1.60;97.20;;;;;;5047469;28;20025;-62
2023/03/29 05:58:14;;;;;;;6.80;2.30;;;1.70;96.50;;;;;;5027247;28;20036;-62
2023/03/29 06:00:40;;;;;;;7.90;3.22;;;1.80;96.30;;;;;;5029262;28;20513;-62
2023/03/29 06:03:12;;;;;;;3.20;1.95;;;1.90;95.30;;;;;;5025674;28;20034;-62
2023/03/29 06:05:39;;;;;;;6.38;2.08;;;2.00;94.70;;;;;;5034258;28;20073;-62
2023/03/29 06:08:05;;;;;;;6.63;2.63;;;2.00;94.40;;;;;;5044365;28;20078;-62
2023/03/29 06:10:31;;;;;;;5.68;1.98;;;2.10;93.90;;;;;;5047389;28;20438;-62
2023/03/29 06:12:57;;;;;;;7.47;2.20;;;2.30;93.30;;;;;;5032235;28;20053;-62
2023/03/29 06:15:23;;;;;;;7.38;2.25;;;2.40;92.50;;;;;;5047230;28;20087;-62
2023/03/29 06:17:49;;;;;;;7.88;2.45;;;2.60;92.00;;;;;;5030870;28;20447;-63
2023/03/29 06:20:15;;;;;;;5.72;3.38;;;2.70;90.90;;;;;;5047552;28;20029;-63
2023/03/29 06:22:41;;;;;;;5.68;2.50;;;2.90;90.00;;;;;;5029772;28;20120;-63
2023/03/29 06:25:09;;;;;;;6.97;2.97;;;3.10;89.00;;;;;;5046962;28;20143;-62
2023/03/29 06:27:35;;;;;;;9.13;3.10;;;3.20;87.40;;;;;;5028645;28;20110;-62
2023/03/29 06:30:01;;;;;;;7.45;4.30;;;3.40;86.90;;;;;;5046884;28;20052;-62
2023/03/29 06:32:28;;;;;;;7.32;4.93;;;3.50;85.10;;;;;;5027450;28;20520;-62
2023/03/29 06:34:54;;;;;;;10.20;4.30;;;3.70;83.40;;;;;;5047158;28;20052;-62
2023/03/29 06:37:21;;;;;;;6.68;3.40;;;3.80;82.30;;;;;;5025597;28;20049;-62
2023/03/29 06:39:51;;;;;;;6.50;3.10;;;3.80;80.20;;;;;;5046902;28;20508;-62
2023/03/29 06:42:18;;;;;;;7.13;2.65;;;4.00;80.50;;;;;;5007253;28;20441;-62
2023/03/29 06:44:44;;;;;;;6.15;3.13;;;4.10;79.60;;;;;;5048563;28;20390;-62
2023/03/29 06:47:09;;;;;;;7.70;3.35;;;4.30;78.90;;;;;;5029960;28;20029;-62
2023/03/29 06:49:35;;;;;;;3.63;2.33;;;4.50;77.00;;;;;;5031549;28;20449;-62
2023/03/29 06:52:00;;;;;;;8.30;2.63;;;4.70;75.70;;;;;;5047652;28;20025;-62
2023/03/29 06:54:26;;;;;;;7.85;2.30;;;4.90;75.10;;;;;;5031764;28;20022;-62
2023/03/29 06:56:52;;;;;;;6.25;3.25;;;5.20;73.70;;;;;;5048392;28;20055;-62
2023/03/29 06:59:17;;;;;;;9.38;3.17;;;5.30;70.50;;;;;;5051340;28;20082;-62
2023/03/29 07:01:43;;;;;;;6.55;2.72;;;5.50;70.70;;;;;;5035633;28;20040;-62
2023/03/29 07:04:09;;;;;;;10.02;3.17;;;5.50;66.60;;;;;;5051220;28;20021;-63
2023/03/29 07:06:37;;;;;;;7.30;2.67;;;5.70;67.40;;;;;;5031667;28;20116;-62
2023/03/29 07:09:05;;;;;;;7.00;3.50;;;5.70;63.40;;;;;;5050794;28;20067;-62
2023/03/29 07:11:35;;;;;;;4.25;2.47;;;5.60;64.00;;;;;;5033628;28;20025;-62
2023/03/29 07:14:02;;;;;;;7.97;2.63;;;5.60;63.70;;;;;;5050813;28;20025;-62
2023/03/29 07:16:27;;;;;;;5.07;2.63;;;5.60;63.90;;;;;;5033259;28;20014;-62
2023/03/29 07:18:53;;;;;;;7.05;2.80;;;5.70;64.20;;;;;;5050823;28;20098;-63
2023/03/29 07:21:19;;;;;;;5.30;2.10;;;5.80;63.90;;;;;;5032240;28;20036;-61
2023/03/29 07:23:44;;;;;;;5.78;2.40;;;6.00;62.70;;;;;;5050722;28;20067;-63
2023/03/29 07:26:10;;;;;;;6.85;2.47;;;6.10;64.10;;;;;;5030876;28;20253;-62
2023/03/29 07:28:38;;;;;;;8.60;2.92;;;6.30;63.00;;;;;;5050904;28;20064;-62
2023/03/29 07:31:06;;;;;;;8.90;2.50;;;6.30;59.50;;;;;;5029900;28;20025;-62
2023/03/29 07:33:33;;;;;;;6.90;2.55;;;6.40;58.80;;;;;;5030714;28;20502;-62
2023/03/29 07:35:59;;;;;;;3.10;2.20;;;6.50;60.50;;;;;;5049669;28;20021;-63
2023/03/29 07:38:25;;;;;;;6.20;2.72;;;6.60;60.90;;;;;;5030218;28;20104;-62
2023/03/29 07:40:53;;;;;;;6.47;2.15;;;6.60;59.10;;;;;;5049964;28;20029;-60
2023/03/29 07:43:18;;;;;;;7.13;2.78;;;6.70;58.50;;;;;;5028944;28;20052;-60
2023/03/29 07:45:45;;;;;;;7.18;3.78;;;6.70;57.20;;;;;;5049306;28;20485;-60
2023/03/29 07:48:11;;;;;;;4.47;2.38;;;6.90;58.60;;;;;;5028975;28;20490;-61
2023/03/29 07:50:37;;;;;;;8.00;2.08;;;7.10;57.90;;;;;;5049641;28;20028;-62
2023/03/29 07:53:03;;;;;;;4.20;2.55;;;7.30;57.80;;;;;;5028746;28;20347;-61
2023/03/29 07:55:28;;;;;;;4.50;2.97;;;7.40;51.50;;;;;;5049232;28;20108;-60
2023/03/29 07:57:54;;;;;;;11.38;2.78;;;7.50;53.80;;;;;;5028826;28;20065;-61
2023/03/29 08:00:21;;;;;;;7.57;2.90;;;7.60;52.70;;;;;;5049358;28;20033;-60
2023/03/29 08:02:48;;;;;;;4.90;2.00;;;7.70;51.20;;;;;;5027135;28;20048;-60
2023/03/29 08:05:14;;;;;;;3.65;1.80;;;7.90;53.30;;;;;;5038998;28;20511;-61
2023/03/29 08:07:42;;;;;;;4.45;1.88;;;8.20;54.00;;;;;;5041931;28;20033;-61
2023/03/29 08:10:11;;;;;;;5.03;2.33;;;8.40;52.40;;;;;;5028759;28;20022;-60
2023/03/29 08:12:37;;;;;;;3.65;1.90;;;8.50;45.90;;;;;;5034438;28;20125;-60
2023/03/29 08:15:04;;;;;;;5.20;2.25;;;8.60;49.40;;;;;;5047520;28;20540;-61
2023/03/29 08:17:29;;;;;;;5.65;1.95;;;8.80;49.50;;;;;;5028274;28;20432;-60
2023/03/29 08:19:55;;;;;;;6.30;2.10;;;9.00;47.40;;;;;;5048984;28;20021;-61
2023/03/29 08:22:20;;;;;;;4.63;2.10;;;9.10;47.70;;;;;;5028272;28;20041;-62
2023/03/29 08:24:46;;;;;;;5.93;2.45;;;9.40;47.40;;;;;;5048957;28;20078;-61
2023/03/29 08:27:12;;;;;;;3.75;2.13;;;9.70;46.60;;;;;;5038171;28;20036;-61
2023/03/29 08:29:37;;;;;;;5.15;2.03;;;10.00;47.60;;;;;;5028671;28;20027;-61
2023/03/29 08:32:03;;;;;;;4.28;1.83;;;10.30;41.30;;;;;;5036354;28;20417;-61
2023/03/29 08:34:30;;;;;;;6.10;2.30;;;10.60;44.90;;;;;;5048590;28;20120;-61
2023/03/29 08:36:57;;;;;;;5.32;2.22;;;11.00;41.20;;;;;;5035617;28;20029;-61
2023/03/29 08:39:22;;;;;;;5.30;1.92;;;11.20;40.70;;;;;;5029469;28;20312;-61
2023/03/29 08:42:06;;;;;;;5.57;1.85;;;11.40;38.20;;;;;;5046403;28;20378;-61
2023/03/29 08:44:40;;;;;;;4.35;1.92;;;11.70;32.20;;;;;;5009709;28;20042;-70
2023/03/29 08:47:28;;;;;;;4.25;1.85;;;12.00;38.50;;;;;;5025916;28;20029;-60
2023/03/29 08:49:55;;;;;;;5.82;2.40;;;12.40;28.10;;;;;;5009670;28;20022;-71
2023/03/29 08:52:47;;;;;;;4.28;1.60;;;12.80;35.70;;;;;;5034941;28;20113;-70
2023/03/29 08:55:21;;;;;;;3.58;1.88;;;13.20;25.90;;;;;;5009379;28;20055;-71
2023/03/29 08:57:49;;;;;;;3.70;1.88;;;13.50;35.40;;;;;;5031695;28;20087;-71
2023/03/29 09:00:32;;;;;;;4.05;1.80;;;13.70;24.20;;;;;;5048596;28;20029;-71
2023/03/29 09:03:01;;;;;;;2.80;1.55;;;14.10;25.10;;;;;;5023594;28;20502;-71
2023/03/29 09:05:32;;;;;;;6.93;1.80;;;14.50;31.30;;;;;;5036393;28;20047;-71
2023/03/29 09:07:58;;;;;;;5.55;2.05;;;14.90;28.10;;;;;;5023084;28;20025;-71
2023/03/29 09:10:33;;;;;;;6.03;1.90;;;15.20;26.80;;;;;;5047859;28;20028;-71
2023/03/29 09:13:14;;;;;;;2.90;1.98;;;15.40;26.70;;;;;;5023552;28;20021;-71
2023/03/29 09:16:04;;;;;;;2.50;1.50;;;15.70;23.50;;;;;;5009209;28;20246;-71
2023/03/29 09:19:05;;;;;;;3.70;1.85;;;15.90;18.40;;;;;;5048627;28;20553;-71
2023/03/29 09:22:01;;;;;;;3.78;1.80;;;15.90;16.20;;;;;;5016081;28;20464;-70
2023/03/29 09:24:50;;;;;;;2.08;1.42;;;15.80;19.30;;;;;;5048747;28;20033;-70
2023/03/29 09:27:27;;;;;;;3.30;2.28;;;15.70;15.40;;;;;;5027908;28;20025;-71
2023/03/29 09:30:17;;;;;;;5.00;2.17;;;15.60;16.40;;;;;;5009090;28;20025;-70
2023/03/29 09:32:56;;;;;;;5.25;2.30;;;15.30;14.30;;;;;;5021001;28;20052;-71
2023/03/29 09:35:23;;;;;;;3.30;2.03;;;14.90;16.90;;;;;;5008767;28;20239;-70
2023/03/29 09:37:51;;;;;;;4.75;1.83;;;14.90;16.60;;;;;;5029320;28;20026;-70
2023/03/29 09:40:25;;;;;;;2.65;1.80;;;14.90;18.30;;;;;;5048200;28;20031;-70
2023/03/29 09:42:53;;;;;;;2.83;2.00;;;14.80;17.90;;;;;;5022227;28;20436;-70
2023/03/29 09:45:19;;;;;;;5.35;2.40;;;14.70;16.40;;;;;;5047921;28;20017;-64
2023/03/29 09:47:57;;;;;;;4.13;2.08;;;14.40;17.10;;;;;;5026798;28;20540;-70
2023/03/29 09:50:35;;;;;;;3.15;1.88;;;14.40;17.70;;;;;;5047935;28;20590;-69
2023/03/29 09:53:01;;;;;;;4.70;2.08;;;14.50;18.90;;;;;;5023522;28;20128;-70
2023/03/29 09:55:31;;;;;;;3.90;1.95;;;14.60;18.00;;;;;;5047550;28;20528;-70
2023/03/29 09:58:01;;;;;;;4.32;2.38;;;14.60;17.90;;;;;;5026623;28;20187;-70
2023/03/29 10:00:27;;;;;;;2.65;1.90;;;14.60;17.10;;;;;;5047713;28;20037;-69
2023/03/29 10:02:55;;;;;;;4.97;2.00;;;14.60;18.10;;;;;;5027027;28;20083;-70
2023/03/29 10:05:24;;;;;;;2.88;1.95;;;14.80;18.10;;;;;;5034821;28;20512;-69
2023/03/29 10:07:53;;;;;;;5.10;1.98;;;14.80;17.40;;;;;;5030924;28;20044;-70
2023/03/29 10:10:28;;;;;;;3.50;2.03;;;14.70;16.10;;;;;;5048156;28;20323;-69
2023/03/29 10:13:00;;;;;;;3.80;1.92;;;14.40;17.30;;;;;;5022526;28;20072;-70
2023/03/29 10:15:29;;;;;;;4.38;2.08;;;14.30;17.70;;;;;;5008496;28;20061;-69
2023/03/29 10:18:05;;;;;;;3.55;2.08;;;14.10;17.80;;;;;;5029326;28;20021;-69
2023/03/29 10:20:35;;;;;;;2.75;1.80;;;14.10;17.80;;;;;;5011340;28;20034;-69
2023/03/29 10:23:01;;;;;;;6.20;2.13;;;14.00;18.10;;;;;;5033151;28;20223;-70
2023/03/29 10:25:30;;;;;;;3.15;1.52;;;14.20;18.40;;;;;;5051150;28;20044;-69
2023/03/29 10:28:21;;;;;;;4.75;2.42;;;14.30;18.00;;;;;;5030089;28;20060;-69
2023/03/29 10:30:53;;;;;;;4.25;1.92;;;14.40;16.90;;;;;;5011906;28;20034;-69
2023/03/29 10:33:22;;;;;;;6.20;2.25;;;13.90;17.60;;;;;;5029617;28;20040;-68
2023/03/29 10:35:49;;;;;;;2.35;1.75;;;13.80;17.60;;;;;;5050012;28;20029;-69
2023/03/29 10:38:18;;;;;;;4.47;2.13;;;13.90;18.30;;;;;;5030351;28;20164;-70
2023/03/29 10:40:48;;;;;;;6.40;2.60;;;13.90;18.10;;;;;;5050734;28;20037;-70
2023/03/29 10:43:31;;;;;;;3.25;2.53;;;13.90;17.70;;;;;;5029942;28;20040;-70
2023/03/29 10:46:16;;;;;;;3.47;2.00;;;13.80;18.00;;;;;;5011809;28;20375;-70
2023/03/29 10:48:46;;;;;;;4.78;1.88;;;13.90;18.40;;;;;;5011668;28;20226;-71
2023/03/29 10:51:13;;;;;;;4.97;2.22;;;14.00;17.90;;;;;;5013129;28;20038;-69
2023/03/29 10:53:39;;;;;;;3.22;1.98;;;13.80;18.30;;;;;;5051295;28;20033;-70
2023/03/29 10:56:29;;;;;;;3.80;1.90;;;13.70;18.20;;;;;;5030356;28;20025;-71
2023/03/29 10:59:08;;;;;;;3.00;1.50;;;13.60;18.50;;;;;;5051253;28;20386;-70
2023/03/29 11:02:12;;;;;;;2.63;1.80;;;13.70;18.70;;;;;;5018765;28;20431;-71
2023/03/29 11:04:51;;;;;;;1.65;1.38;;;13.50;18.60;;;;;;5012661;28;20038;-70
2023/03/29 11:07:33;;;;;;;2.72;1.70;;;13.50;19.30;;;;;;5049106;28;20409;-70
2023/03/29 11:10:37;;;;;;;4.35;1.50;;;13.50;19.60;;;;;;5011341;28;20030;-70
2023/03/29 11:13:17;;;;;;;2.90;1.70;;;13.40;19.80;;;;;;5030639;28;20082;-70
2023/03/29 11:16:01;;;;;;;2.60;1.67;;;13.30;20.40;;;;;;5010986;28;20534;-70
2023/03/29 11:18:54;;;;;;;4.68;2.40;;;13.20;20.00;;;;;;5011165;28;20406;-69
2023/03/29 11:21:28;;;;;;;5.90;2.20;;;13.00;20.00;;;;;;5014928;28;20169;-69
2023/03/29 11:24:18;;;;;;;1.98;1.73;;;12.60;21.10;;;;;;5048640;28;20064;-69
2023/03/29 11:27:14;;;;;;;2.78;1.85;;;12.60;21.80;;;;;;5011243;28;20034;-69
2023/03/29 11:30:13;;;;;;;7.50;1.98;;;12.60;22.10;;;;;;5011454;28;20025;-70
2023/03/29 11:32:55;;;;;;;3.35;1.83;;;12.60;22.10;;;;;;5040215;28;20041;-70
2023/03/29 11:35:42;;;;;;;2.00;1.52;;;12.50;22.10;;;;;;5015120;28;20108;-69
2023/03/29 11:38:26;;;;;;;3.35;1.70;;;12.60;22.30;;;;;;5048886;28;20385;-69
2023/03/29 11:41:04;;;;;;;3.65;1.65;;;12.70;22.60;;;;;;5035842;28;20433;-70
2023/03/29 11:43:44;;;;;;;2.92;1.40;;;12.90;22.40;;;;;;5009139;28;20033;-69
2023/03/29 11:46:37;;;;;;;2.58;1.05;;;13.00;22.40;;;;;;5028715;28;20063;-70
2023/03/29 11:49:25;;;;;;;3.13;1.55;;;13.00;22.10;;;;;;5009493;28;20025;-69
2023/03/29 11:52:13;;;;;;;2.65;1.50;;;13.10;21.80;;;;;;5025147;28;20080;-69
2023/03/29 11:55:11;;;;;;;3.38;1.65;;;12.90;22.20;;;;;;5049854;28;20276;-69
2023/03/29 11:57:50;;;;;;;2.97;1.73;;;12.50;22.50;;;;;;5036056;28;20057;-69
2023/03/29 12:00:37;;;;;;;3.92;2.00;;;12.30;23.40;;;;;;5015308;28;20152;-69
2023/03/29 12:03:18;;;;;;;3.55;1.70;;;12.40;23.70;;;;;;5049683;28;20072;-69
2023/03/29 12:06:03;;;;;;;4.45;1.95;;;12.50;23.50;;;;;;5025742;28;20057;-69
2023/03/29 12:08:35;;;;;;;9.50;7.05;;;12.60;23.50;;;;;;5010145;28;20105;-69
2023/03/29 12:11:12;;;;;;;4.40;3.33;;;12.50;23.50;;;;;;5026969;28;20085;-69
2023/03/29 12:13:52;;;;;;;3.45;3.05;;;12.50;23.60;;;;;;5010111;28;20502;-69
2023/03/29 12:16:44;;;;;;;4.78;4.20;;;12.30;23.70;;;;;;5031794;28;20040;-69
2023/03/29 12:19:33;;;;;;;7.90;3.00;;;12.20;24.10;;;;;;5010180;28;20061;-69
2023/03/29 12:22:00;;;;;;;3.72;2.45;;;12.20;25.20;;;;;;5026514;28;20116;-69
2023/03/29 12:24:29;;;;;;;3.75;2.08;;;12.30;25.00;;;;;;5049469;28;20037;-69
2023/03/29 12:27:04;;;;;;;3.72;1.95;;;12.50;24.80;;;;;;5028183;28;20375;-69
2023/03/29 12:29:48;;;;;;;3.08;2.78;;;12.70;24.50;;;;;;5048810;28;20623;-69
2023/03/29 12:32:22;;;;;;;3.75;2.67;;;12.80;24.00;;;;;;5047360;28;20049;-69
2023/03/29 12:35:13;;;;;;;2.60;1.77;;;12.90;23.80;;;;;;5028645;28;20044;-69
2023/03/29 12:38:07;;;;;;;3.45;2.00;;;12.90;24.30;;;;;;5029675;28;20136;-69
2023/03/29 12:40:42;;;;;;;4.47;2.75;;;12.90;23.80;;;;;;5018929;28;20516;-69
2023/03/29 12:43:15;;;;;;;4.30;2.55;;;12.70;23.40;;;;;;5048555;28;20036;-69
2023/03/29 12:45:49;;;;;;;5.07;2.83;;;12.70;23.80;;;;;;5021108;28;20104;-68
2023/03/29 12:48:18;;;;;;;6.60;2.80;;;12.70;23.90;;;;;;5049718;28;20028;-69
2023/03/29 12:50:59;;;;;;;7.18;5.57;;;12.70;24.10;;;;;;5034268;28;20113;-69
2023/03/29 12:53:35;;;;;;;7.15;4.57;;;12.70;25.10;;;;;;5024556;28;20058;-69
2023/03/29 12:56:07;;;;;;;3.40;2.65;;;12.60;24.80;;;;;;5046630;28;20033;-69
2023/03/29 12:58:42;;;;;;;11.90;5.38;;;12.70;24.80;;;;;;5029170;28;20022;-70
2023/03/29 13:01:28;;;;;;;6.10;3.90;;;12.60;24.90;;;;;;5037615;28;20025;-69
2023/03/29 13:04:12;;;;;;;7.10;3.47;;;12.60;25.20;;;;;;5029281;28;20029;-69
2023/03/29 13:07:01;;;;;;;4.65;2.55;;;12.70;25.00;;;;;;5018807;28;20040;-69
2023/03/29 13:09:34;;;;;;;4.00;2.63;;;12.70;24.70;;;;;;5009116;28;20044;-69
2023/03/29 13:12:10;;;;;;;3.13;2.53;;;12.90;24.50;;;;;;5024728;28;20033;-69